Time;durP1;ratioP1;P1;durP2;ratioP2;P2;SDS_P1;SDS_P2;PMS_P1;PMS_P2;Temp;Humidity;BMP_temperature;BMP_pressure;BME280_temperature;BME280_humidity;BME280_pressure;Samples;Min_cycle;Max_cycle;Signal;HPM_P1;HPM_P2
2024/04/19 00:01:42;;;;;;;1.02;0.98;;;8.50;1.00;;;;;;6579396;21;20004;-76
2024/04/19 00:04:08;;;;;;;1.05;1.00;;;8.40;1.00;;;;;;6579838;21;20407;-76
2024/04/19 00:06:33;;;;;;;2.22;0.90;;;8.40;1.00;;;;;;6578885;21;20000;-76
2024/04/19 00:08:59;;;;;;;1.08;0.88;;;8.50;1.00;;;;;;6533305;21;19999;-76
2024/04/19 00:11:25;;;;;;;0.90;0.90;;;8.40;1.00;;;;;;6579381;21;19992;-76
2024/04/19 00:13:51;;;;;;;1.08;1.08;;;8.50;1.00;;;;;;6579590;21;19996;-76
2024/04/19 00:16:16;;;;;;;2.92;0.98;;;8.50;1.00;;;;;;6579463;21;20001;-76
2024/04/19 00:18:43;;;;;;;2.78;1.10;;;8.40;1.00;;;;;;6579369;21;20004;-76
2024/04/19 00:21:08;;;;;;;0.73;0.73;;;8.40;1.00;;;;;;6578568;21;20000;-76
2024/04/19 00:23:36;;;;;;;1.00;0.90;;;8.40;1.00;;;;;;6579083;21;19996;-76
2024/04/19 00:26:02;;;;;;;1.77;0.70;;;8.30;1.00;;;;;;6579008;21;19993;-76
2024/04/19 00:28:27;;;;;;;2.35;0.73;;;8.30;1.00;;;;;;6578949;21;20459;-76
2024/04/19 00:30:56;;;;;;;2.47;0.60;;;8.10;1.00;;;;;;6578722;21;20096;-76
2024/04/19 00:33:22;;;;;;;0.95;0.80;;;8.10;1.00;;;;;;6533379;21;20463;-76
2024/04/19 00:35:48;;;;;;;1.00;0.68;;;8.10;1.00;;;;;;6579077;21;20007;-76
2024/04/19 00:38:13;;;;;;;1.30;0.80;;;8.10;1.00;;;;;;6578568;21;19988;-76
2024/04/19 00:40:39;;;;;;;0.70;0.70;;;8.10;1.00;;;;;;6579703;21;20008;-76
2024/04/19 00:43:05;;;;;;;1.83;1.00;;;8.20;1.00;;;;;;6533086;21;20414;-76
2024/04/19 00:45:35;;;;;;;0.90;0.90;;;8.20;1.00;;;;;;6579337;21;20430;-76
2024/04/19 00:48:18;;;;;;;1.85;0.80;;;8.20;1.00;;;;;;6578494;21;19992;-76
2024/04/19 00:50:45;;;;;;;0.88;0.68;;;8.10;1.00;;;;;;6579249;21;20084;-76
2024/04/19 00:53:14;;;;;;;0.60;0.60;;;8.10;1.00;;;;;;6578559;21;20349;-76
2024/04/19 00:55:40;;;;;;;0.60;0.60;;;8.10;1.00;;;;;;6578943;21;20020;-76
2024/04/19 00:58:07;;;;;;;1.08;0.90;;;8.10;1.00;;;;;;6578648;21;19988;-76
2024/04/19 01:00:33;;;;;;;0.90;0.70;;;8.00;1.00;;;;;;6578414;21;19992;-76
2024/04/19 01:02:58;;;;;;;0.93;0.93;;;8.00;1.00;;;;;;6578672;21;20010;-76
2024/04/19 01:05:24;;;;;;;0.75;0.75;;;8.00;1.00;;;;;;6579098;21;20069;-76
2024/04/19 01:07:50;;;;;;;1.27;0.80;;;8.00;1.00;;;;;;6567583;21;20008;-76
2024/04/19 01:10:17;;;;;;;0.63;0.60;;;7.90;1.00;;;;;;6579046;21;20004;-76
2024/04/19 01:12:43;;;;;;;1.17;0.73;;;7.90;99.90;;;;;;6578390;21;20310;-76
2024/04/19 01:15:15;;;;;;;0.68;0.68;;;7.90;99.90;;;;;;6578640;21;20000;-76
2024/04/19 01:17:41;;;;;;;0.68;0.68;;;7.90;99.90;;;;;;6578610;21;20411;-76
2024/04/19 01:20:07;;;;;;;0.70;0.70;;;7.80;99.90;;;;;;6576372;21;20346;-76
2024/04/19 01:22:33;;;;;;;1.42;0.70;;;7.80;99.90;;;;;;6578619;21;19999;-76
2024/04/19 01:25:03;;;;;;;2.03;0.80;;;7.80;99.90;;;;;;6578674;21;20012;-76
2024/04/19 01:27:28;;;;;;;0.60;0.60;;;7.70;99.90;;;;;;6578828;21;20171;-76
2024/04/19 01:29:54;;;;;;;0.75;0.70;;;7.70;99.90;;;;;;6578184;21;20003;-76
2024/04/19 01:32:20;;;;;;;0.50;0.50;;;7.70;1.00;;;;;;6577998;21;19992;-76
2024/04/19 01:34:46;;;;;;;2.05;0.70;;;7.70;99.90;;;;;;6578770;21;19996;-76
2024/04/19 01:37:12;;;;;;;1.63;0.70;;;7.80;99.90;;;;;;6578433;21;20439;-76
2024/04/19 01:39:38;;;;;;;0.50;0.50;;;7.70;99.90;;;;;;6580485;21;20000;-76
2024/04/19 01:42:04;;;;;;;0.70;0.70;;;7.70;99.90;;;;;;6578656;21;19996;-76
2024/04/19 01:44:30;;;;;;;0.70;0.70;;;7.70;99.90;;;;;;6578585;21;19996;-76
2024/04/19 01:46:55;;;;;;;0.43;0.30;;;7.70;99.90;;;;;;6580882;21;19999;-76
2024/04/19 01:49:21;;;;;;;0.30;0.30;;;7.70;99.90;;;;;;6580562;21;19996;-76
2024/04/19 01:51:47;;;;;;;0.40;0.40;;;7.70;99.90;;;;;;6580955;21;19996;-76
2024/04/19 01:54:15;;;;;;;1.85;0.63;;;7.70;99.90;;;;;;6580302;21;20296;-76
2024/04/19 01:56:41;;;;;;;0.40;0.40;;;7.70;99.90;;;;;;6578502;21;19992;-76
2024/04/19 01:59:07;;;;;;;0.50;0.50;;;7.60;99.90;;;;;;6580425;21;19989;-76
2024/04/19 02:01:33;;;;;;;0.57;0.57;;;7.60;99.90;;;;;;6578336;21;20003;-76
2024/04/19 02:03:59;;;;;;;1.20;0.40;;;7.50;99.90;;;;;;6581315;21;20396;-76
2024/04/19 02:06:24;;;;;;;0.65;0.50;;;7.50;99.90;;;;;;6580432;21;20003;-76
2024/04/19 02:08:50;;;;;;;1.98;0.47;;;7.50;99.90;;;;;;6580473;21;19998;-76
2024/04/19 02:11:16;;;;;;;1.02;0.35;;;7.50;99.90;;;;;;6535269;21;19992;-76
2024/04/19 02:13:42;;;;;;;0.75;0.32;;;7.50;99.90;;;;;;6580925;21;19997;-76
2024/04/19 02:16:07;;;;;;;0.40;0.40;;;7.50;99.90;;;;;;6580489;21;19992;-76
2024/04/19 02:18:33;;;;;;;0.43;0.43;;;7.60;99.90;;;;;;6580313;21;19992;-76
2024/04/19 02:20:59;;;;;;;0.55;0.55;;;7.50;99.90;;;;;;6580639;21;20003;-76
2024/04/19 02:23:37;;;;;;;0.35;0.32;;;7.60;99.90;;;;;;6580274;21;20003;-76
2024/04/19 02:26:03;;;;;;;0.60;0.60;;;7.60;99.90;;;;;;6534362;21;20288;-76
2024/04/19 02:31:13;;;;;;;0.73;0.30;;;7.60;99.90;;;;;;6580538;21;20004;-76
2024/04/19 02:33:39;;;;;;;0.40;0.40;;;7.70;99.90;;;;;;6580194;21;19996;-76
2024/04/19 02:36:06;;;;;;;0.45;0.40;;;7.80;72.50;;;;;;6580787;21;20302;-76
2024/04/19 02:38:32;;;;;;;1.00;0.40;;;7.80;49.40;;;;;;6580042;21;19989;-76
2024/04/19 02:40:58;;;;;;;1.75;0.38;;;7.80;45.80;;;;;;6580838;21;20418;-76
2024/04/19 02:43:23;;;;;;;0.50;0.43;;;7.90;14.30;;;;;;6580065;21;20066;-76
2024/04/19 02:45:49;;;;;;;0.40;0.40;;;8.00;1.00;;;;;;6534583;21;19992;-76
2024/04/19 02:48:15;;;;;;;0.40;0.40;;;8.00;1.00;;;;;;6580220;21;19999;-76
2024/04/19 02:50:40;;;;;;;1.48;0.40;;;8.10;1.00;;;;;;6534664;21;20004;-76
2024/04/19 02:53:06;;;;;;;0.40;0.35;;;8.20;1.00;;;;;;6579996;21;19992;-76
2024/04/19 02:55:33;;;;;;;0.40;0.40;;;8.20;1.00;;;;;;6580168;21;20007;-76
2024/04/19 02:57:58;;;;;;;0.40;0.32;;;8.20;1.00;;;;;;6533990;21;20025;-76
2024/04/19 03:00:24;;;;;;;0.30;0.30;;;8.20;1.00;;;;;;6580257;21;20004;-76
2024/04/19 03:02:50;;;;;;;0.45;0.45;;;8.40;1.00;;;;;;6580106;21;19992;-76
2024/04/19 03:05:16;;;;;;;0.68;0.68;;;8.40;1.00;;;;;;6580132;21;20470;-76
2024/04/19 03:07:41;;;;;;;0.43;0.40;;;8.40;1.00;;;;;;6579792;21;19993;-76
2024/04/19 03:10:07;;;;;;;0.47;0.40;;;8.40;1.00;;;;;;6580307;21;20430;-76
2024/04/19 03:12:33;;;;;;;0.65;0.40;;;8.40;1.00;;;;;;6580075;21;20284;-76
2024/04/19 03:14:58;;;;;;;0.30;0.30;;;8.30;1.00;;;;;;6534388;21;20011;-76
2024/04/19 03:17:24;;;;;;;0.40;0.40;;;8.30;1.00;;;;;;6580031;21;20003;-76
2024/04/19 03:19:49;;;;;;;0.35;0.35;;;8.30;1.00;;;;;;6580122;21;20003;-76
2024/04/19 03:22:16;;;;;;;0.30;0.30;;;8.40;1.00;;;;;;6533994;21;19991;-76
2024/04/19 03:24:42;;;;;;;0.40;0.30;;;8.40;1.00;;;;;;6579835;21;20303;-76
2024/04/19 03:27:08;;;;;;;0.40;0.40;;;8.40;1.00;;;;;;6534108;21;19989;-76
2024/04/19 03:29:33;;;;;;;1.38;0.40;;;8.40;99.90;;;;;;6533960;21;19997;-76
2024/04/19 03:31:59;;;;;;;0.47;0.47;;;8.40;1.00;;;;;;6580237;21;19996;-76
2024/04/19 03:34:25;;;;;;;0.40;0.40;;;8.30;1.00;;;;;;6579729;21;19988;-76
2024/04/19 03:36:51;;;;;;;1.20;0.50;;;8.40;99.90;;;;;;6579456;21;20301;-76
2024/04/19 03:39:17;;;;;;;0.30;0.30;;;8.30;1.00;;;;;;6579765;21;20102;-76
2024/04/19 03:41:44;;;;;;;0.47;0.30;;;8.30;1.00;;;;;;6579571;21;19992;-76
2024/04/19 03:46:54;;;;;;;0.50;0.50;;;8.30;99.90;;;;;;6579187;21;20422;-76
2024/04/19 03:49:20;;;;;;;0.22;0.22;;;8.40;99.90;;;;;;6533355;21;19992;-76
2024/04/19 03:51:46;;;;;;;0.30;0.30;;;8.50;99.90;;;;;;6579630;21;20328;-76
2024/04/19 03:54:11;;;;;;;0.25;0.25;;;8.50;99.90;;;;;;6533443;21;19993;-76
2024/04/19 03:56:37;;;;;;;0.47;0.45;;;8.40;99.90;;;;;;6579087;21;19989;-76
2024/04/19 03:59:03;;;;;;;0.52;0.20;;;8.40;99.90;;;;;;6579303;21;20296;-76
2024/04/19 04:01:28;;;;;;;0.50;0.50;;;8.40;99.90;;;;;;6579022;21;19992;-76
2024/04/19 04:03:54;;;;;;;0.40;0.40;;;8.50;99.90;;;;;;6579549;21;20074;-76
2024/04/19 04:06:20;;;;;;;0.30;0.30;;;8.50;99.90;;;;;;6579435;21;20062;-76
2024/04/19 04:08:46;;;;;;;0.43;0.43;;;8.40;99.90;;;;;;6579205;21;19992;-76
2024/04/19 04:11:12;;;;;;;0.30;0.30;;;8.40;99.90;;;;;;6578913;21;19997;-76
2024/04/19 04:13:41;;;;;;;0.40;0.40;;;8.40;99.90;;;;;;6579247;21;20006;-76
2024/04/19 04:16:08;;;;;;;0.35;0.35;;;8.40;99.90;;;;;;6579272;21;20067;-76
2024/04/19 04:18:34;;;;;;;0.32;0.32;;;8.40;99.90;;;;;;6579169;21;20004;-76
2024/04/19 04:21:00;;;;;;;0.55;0.40;;;8.50;99.90;;;;;;6533233;21;19999;-76
2024/04/19 04:23:26;;;;;;;0.40;0.40;;;8.50;99.90;;;;;;6579880;21;20067;-76
2024/04/19 04:25:52;;;;;;;0.47;0.30;;;8.50;99.90;;;;;;6578917;21;19997;-76
2024/04/19 04:28:18;;;;;;;0.30;0.30;;;8.50;99.90;;;;;;6579109;21;20366;-76
2024/04/19 04:30:43;;;;;;;2.28;0.40;;;8.50;99.90;;;;;;6578963;21;19996;-76
2024/04/19 04:33:09;;;;;;;0.90;0.50;;;8.60;99.90;;;;;;6579254;21;20410;-76
2024/04/19 04:35:38;;;;;;;0.40;0.40;;;8.60;99.90;;;;;;6533466;21;20307;-76
2024/04/19 04:38:06;;;;;;;0.43;0.40;;;8.60;99.90;;;;;;6532972;21;19988;-76
2024/04/19 04:40:32;;;;;;;0.30;0.30;;;8.70;99.90;;;;;;6532935;21;20392;-76
2024/04/19 04:42:58;;;;;;;1.77;0.40;;;8.70;99.90;;;;;;6578568;21;19996;-76
2024/04/19 04:45:24;;;;;;;0.40;0.40;;;8.70;99.90;;;;;;6579655;21;20004;-76
2024/04/19 04:47:50;;;;;;;2.88;0.60;;;8.70;99.90;;;;;;6578805;21;20146;-76
2024/04/19 04:50:16;;;;;;;0.30;0.30;;;8.60;99.90;;;;;;6578844;21;19996;-76
2024/04/19 04:52:41;;;;;;;2.17;0.60;;;8.60;99.90;;;;;;6579019;21;19992;-76
2024/04/19 04:55:07;;;;;;;0.40;0.40;;;8.60;99.90;;;;;;6578609;21;20004;-76
2024/04/19 04:57:33;;;;;;;0.60;0.60;;;8.60;99.90;;;;;;6578848;21;19996;-76
2024/04/19 04:59:59;;;;;;;2.40;0.65;;;8.70;99.90;;;;;;6578648;21;20310;-76
2024/04/19 05:02:24;;;;;;;1.30;0.68;;;8.70;99.90;;;;;;6532958;21;20400;-76
2024/04/19 05:04:50;;;;;;;0.50;0.50;;;8.60;99.90;;;;;;6578551;21;20000;-76
2024/04/19 05:07:16;;;;;;;2.22;0.60;;;8.50;99.90;;;;;;6578508;21;19996;-76
2024/04/19 05:09:41;;;;;;;0.63;0.50;;;8.50;99.90;;;;;;6579244;21;20004;-76
2024/04/19 05:12:08;;;;;;;1.55;0.82;;;8.50;99.90;;;;;;6578648;21;19992;-76
2024/04/19 05:14:34;;;;;;;2.30;1.10;;;8.60;99.90;;;;;;6578600;21;20000;-76
2024/04/19 05:17:00;;;;;;;2.95;1.20;;;8.70;99.90;;;;;;6578474;21;20004;-76
2024/04/19 05:19:25;;;;;;;6.35;2.00;;;8.70;99.90;;;;;;6578893;21;19992;-76
2024/04/19 05:21:51;;;;;;;3.85;1.95;;;8.70;1.00;;;;;;6578585;21;20004;-76
2024/04/19 05:24:17;;;;;;;2.95;1.63;;;8.70;1.00;;;;;;6578557;21;20066;-76
2024/04/19 05:26:42;;;;;;;4.28;1.63;;;8.70;1.00;;;;;;6578525;21;20402;-76
2024/04/19 05:29:12;;;;;;;1.75;1.58;;;8.70;1.00;;;;;;6578390;21;20411;-76
2024/04/19 05:31:37;;;;;;;1.30;1.20;;;8.70;1.00;;;;;;6578314;21;20070;-76
2024/04/19 05:34:03;;;;;;;1.73;1.30;;;8.80;9.80;;;;;;6533079;21;20000;-76
2024/04/19 05:36:29;;;;;;;1.30;1.20;;;8.80;1.00;;;;;;6533072;21;19988;-76
2024/04/19 05:38:54;;;;;;;4.30;1.48;;;8.90;12.30;;;;;;6578468;21;19993;-76
2024/04/19 05:41:20;;;;;;;2.20;1.95;;;8.90;1.00;;;;;;6578925;21;20147;-76
2024/04/19 05:43:47;;;;;;;5.55;2.28;;;8.90;28.30;;;;;;6578420;21;20032;-76
2024/04/19 05:46:13;;;;;;;2.92;2.15;;;8.90;9.60;;;;;;6578473;21;20066;-76
2024/04/19 05:48:39;;;;;;;2.60;1.38;;;8.80;19.50;;;;;;6578175;21;20007;-76
2024/04/19 05:51:05;;;;;;;6.70;1.60;;;9.00;2.60;;;;;;6578346;21;19988;-76
2024/04/19 05:53:30;;;;;;;3.45;1.58;;;9.10;1.00;;;;;;6578178;21;19989;-76
2024/04/19 05:55:56;;;;;;;5.18;1.65;;;9.20;4.60;;;;;;6577966;21;20008;-76
2024/04/19 05:58:23;;;;;;;1.63;1.40;;;9.30;99.90;;;;;;6576937;21;19988;-76
2024/04/19 06:00:49;;;;;;;1.60;1.50;;;9.40;99.90;;;;;;6577906;21;19992;-76
2024/04/19 06:03:15;;;;;;;2.88;1.38;;;9.40;99.90;;;;;;6577666;21;20407;-76
2024/04/19 06:05:41;;;;;;;2.50;1.50;;;9.40;99.90;;;;;;6577827;21;19997;-76
2024/04/19 06:08:07;;;;;;;1.20;1.20;;;9.50;72.50;;;;;;6577563;21;19992;-76
2024/04/19 06:10:34;;;;;;;2.72;1.33;;;9.50;86.20;;;;;;6578028;21;19998;-76
2024/04/19 06:12:59;;;;;;;2.65;1.50;;;9.50;99.90;;;;;;6577893;21;19997;-76
2024/04/19 06:15:25;;;;;;;4.45;1.40;;;9.60;99.90;;;;;;6578592;21;20067;-76
2024/04/19 06:17:51;;;;;;;3.90;1.60;;;9.70;33.70;;;;;;6578125;21;20008;-76
2024/04/19 06:20:17;;;;;;;1.42;1.33;;;9.70;1.00;;;;;;6578315;21;19999;-76
2024/04/19 06:22:42;;;;;;;1.92;1.05;;;9.80;1.00;;;;;;6578135;21;20411;-76
2024/04/19 06:25:08;;;;;;;1.20;1.10;;;9.90;1.00;;;;;;6579502;21;19985;-76
2024/04/19 06:27:34;;;;;;;1.42;1.23;;;9.90;1.00;;;;;;6580342;21;19997;-76
2024/04/19 06:30:00;;;;;;;1.67;1.25;;;10.00;1.00;;;;;;6580449;21;19997;-76
2024/04/19 06:32:25;;;;;;;3.33;1.20;;;10.10;1.00;;;;;;6580063;21;19988;-76
2024/04/19 06:34:51;;;;;;;1.55;1.45;;;10.10;1.00;;;;;;6580302;21;19996;-76
2024/04/19 06:37:17;;;;;;;5.28;1.38;;;10.10;1.00;;;;;;6580113;21;20023;-76
2024/04/19 06:39:43;;;;;;;2.15;0.80;;;10.20;1.00;;;;;;6580116;21;20002;-76
2024/04/19 06:42:08;;;;;;;2.00;0.98;;;10.30;1.00;;;;;;6580037;21;20004;-76
2024/04/19 06:44:34;;;;;;;2.30;1.20;;;10.40;1.00;;;;;;6580063;21;19996;-76
2024/04/19 06:47:00;;;;;;;1.23;1.13;;;10.40;1.00;;;;;;6580023;21;20004;-76
2024/04/19 06:49:25;;;;;;;2.28;1.20;;;10.50;1.00;;;;;;6580386;21;19992;-76
2024/04/19 06:51:51;;;;;;;1.60;1.20;;;10.50;1.00;;;;;;6580067;21;19992;-76
2024/04/19 06:54:17;;;;;;;1.55;1.08;;;10.60;1.00;;;;;;6580281;21;20000;-76
2024/04/19 06:56:42;;;;;;;4.82;1.17;;;10.60;1.00;;;;;;6579851;21;19988;-76
2024/04/19 06:59:09;;;;;;;3.80;1.38;;;10.70;1.00;;;;;;6579809;21;19999;-76
2024/04/19 07:01:35;;;;;;;1.98;1.20;;;10.70;1.00;;;;;;6579732;21;20055;-76
2024/04/19 07:04:02;;;;;;;2.13;1.20;;;10.80;1.00;;;;;;6579892;21;20000;-76
2024/04/19 07:06:28;;;;;;;3.33;1.23;;;10.90;1.00;;;;;;6580165;21;20004;-76
2024/04/19 07:08:54;;;;;;;4.18;1.50;;;11.00;1.00;;;;;;6579979;21;19999;-76
2024/04/19 07:11:20;;;;;;;2.45;1.50;;;11.10;1.00;;;;;;6579932;21;20423;-76
2024/04/19 07:13:46;;;;;;;6.35;1.40;;;11.10;1.00;;;;;;6534324;21;20007;-76
2024/04/19 07:16:15;;;;;;;8.02;1.63;;;11.10;1.00;;;;;;6579746;21;19992;-76
2024/04/19 07:18:45;;;;;;;2.78;1.20;;;11.10;1.00;;;;;;6533986;21;20003;-76
2024/04/19 07:21:11;;;;;;;6.03;1.80;;;11.20;1.00;;;;;;6580400;21;19999;-76
2024/04/19 07:23:37;;;;;;;6.07;1.83;;;11.20;1.00;;;;;;6579857;21;20327;-76
2024/04/19 07:26:02;;;;;;;13.98;2.50;;;11.30;1.00;;;;;;6579784;21;19993;-76
2024/04/19 07:28:28;;;;;;;12.60;2.67;;;11.40;40.40;;;;;;6579846;21;20418;-76
2024/04/19 07:30:54;;;;;;;9.98;2.60;;;11.50;18.30;;;;;;6579863;21;20003;-76
2024/04/19 07:33:19;;;;;;;11.07;2.97;;;11.50;1.00;;;;;;6579483;21;20000;-76
2024/04/19 07:35:46;;;;;;;13.30;2.83;;;11.50;1.00;;;;;;6579273;21;19989;-76
2024/04/19 07:38:12;;;;;;;10.52;2.72;;;11.60;6.50;;;;;;6579644;21;20066;-76
2024/04/19 07:40:38;;;;;;;11.70;2.08;;;11.70;9.90;;;;;;6579664;21;20290;-76
2024/04/19 07:43:04;;;;;;;8.23;2.50;;;11.70;1.00;;;;;;6579738;21;20004;-76
2024/04/19 07:45:30;;;;;;;4.10;2.28;;;11.80;1.00;;;;;;6533569;21;19992;-76
2024/04/19 07:47:56;;;;;;;16.38;2.33;;;11.70;1.00;;;;;;6579040;21;19988;-76
2024/04/19 07:50:22;;;;;;;7.55;2.47;;;11.80;18.90;;;;;;6579878;21;20004;-76
2024/04/19 07:52:49;;;;;;;6.47;1.98;;;11.80;25.70;;;;;;6579602;21;19992;-76
2024/04/19 07:55:15;;;;;;;10.93;3.05;;;11.90;1.00;;;;;;6579663;21;20006;-76
2024/04/19 07:57:41;;;;;;;12.25;2.60;;;11.90;28.70;;;;;;6579391;21;20476;-76
2024/04/19 08:00:15;;;;;;;8.32;2.45;;;11.90;39.20;;;;;;6579794;21;20347;-76
2024/04/19 08:02:41;;;;;;;8.23;2.25;;;11.90;1.00;;;;;;6533433;21;20016;-76
2024/04/19 08:05:07;;;;;;;2.85;2.28;;;12.00;4.80;;;;;;6579190;21;20308;-76
2024/04/19 08:07:34;;;;;;;4.10;2.20;;;12.00;2.90;;;;;;6579265;21;20066;-76
2024/04/19 08:10:00;;;;;;;6.20;2.78;;;12.10;1.00;;;;;;6579630;21;20004;-76
2024/04/19 08:12:25;;;;;;;7.07;2.55;;;12.20;1.00;;;;;;6579387;21;20423;-76
2024/04/19 08:14:51;;;;;;;5.97;2.67;;;12.20;1.00;;;;;;6579253;21;20252;-76
2024/04/19 08:17:17;;;;;;;8.25;2.78;;;12.30;11.90;;;;;;6578624;21;20003;-76
2024/04/19 08:19:42;;;;;;;3.25;2.45;;;12.30;1.00;;;;;;6578963;21;19996;-76
2024/04/19 08:22:09;;;;;;;6.38;2.70;;;12.30;1.00;;;;;;6579441;21;19993;-76
2024/04/19 08:24:35;;;;;;;6.00;2.63;;;12.40;14.00;;;;;;6578927;21;20411;-76
2024/04/19 08:27:01;;;;;;;12.98;3.17;;;12.30;1.00;;;;;;6533479;21;20078;-76
2024/04/19 08:29:26;;;;;;;6.47;2.70;;;12.40;1.00;;;;;;6533396;21;20298;-76
2024/04/19 08:31:52;;;;;;;12.00;2.70;;;12.50;1.00;;;;;;6533370;21;20007;-76
2024/04/19 08:34:18;;;;;;;3.50;2.67;;;12.50;17.00;;;;;;6533157;21;19992;-76
2024/04/19 08:36:43;;;;;;;3.58;2.75;;;12.60;22.40;;;;;;6578713;21;20007;-76
2024/04/19 08:39:09;;;;;;;7.85;3.13;;;12.60;1.00;;;;;;6579215;21;19993;-76
2024/04/19 08:41:35;;;;;;;5.60;2.92;;;12.70;1.00;;;;;;6533180;21;20011;-75
2024/04/19 08:44:03;;;;;;;5.90;2.95;;;12.60;1.00;;;;;;6579032;21;20000;-76
2024/04/19 08:46:32;;;;;;;13.43;2.97;;;12.70;1.00;;;;;;6532809;21;20310;-76
2024/04/19 08:49:02;;;;;;;9.70;2.92;;;12.80;1.00;;;;;;6578768;21;19984;-76
2024/04/19 08:51:32;;;;;;;7.88;3.60;;;12.80;1.00;;;;;;6578929;21;20000;-76
2024/04/19 08:53:58;;;;;;;8.20;2.83;;;12.80;5.60;;;;;;6579286;21;20416;-76
2024/04/19 08:56:25;;;;;;;6.10;3.20;;;12.80;1.00;;;;;;6578623;21;20007;-76
2024/04/19 08:58:56;;;;;;;4.90;2.90;;;12.90;1.00;;;;;;6578410;21;19992;-76
2024/04/19 09:01:22;;;;;;;6.03;3.03;;;13.00;1.00;;;;;;6532761;21;19996;-76
2024/04/19 09:03:48;;;;;;;8.05;3.25;;;13.00;1.00;;;;;;6578713;21;20260;-76
2024/04/19 09:06:14;;;;;;;6.30;3.05;;;13.00;1.00;;;;;;6578130;21;20429;-76
2024/04/19 09:08:41;;;;;;;4.25;3.15;;;13.10;12.10;;;;;;6578286;21;19996;-76
2024/04/19 09:11:11;;;;;;;3.30;2.65;;;13.10;1.00;;;;;;6533182;21;20001;-76
2024/04/19 09:13:37;;;;;;;10.55;3.22;;;13.20;1.00;;;;;;6578593;21;20071;-76
2024/04/19 09:16:03;;;;;;;3.75;2.22;;;13.30;1.00;;;;;;6578952;21;20001;-76
2024/04/19 09:18:29;;;;;;;4.53;2.58;;;13.40;1.00;;;;;;6532327;21;19992;-76
2024/04/19 09:20:54;;;;;;;2.90;2.28;;;13.50;1.00;;;;;;6578463;21;20035;-76
2024/04/19 09:23:20;;;;;;;2.78;1.95;;;13.60;1.00;;;;;;6578213;21;19989;-76
2024/04/19 09:25:55;;;;;;;5.22;2.33;;;13.70;1.00;;;;;;6533175;21;20286;-76
2024/04/19 09:28:22;;;;;;;5.45;1.98;;;13.70;1.00;;;;;;6578326;21;20016;-76
2024/04/19 09:30:54;;;;;;;5.72;2.40;;;13.70;1.00;;;;;;6578672;21;20000;-76
2024/04/19 09:33:21;;;;;;;2.63;2.10;;;13.70;1.00;;;;;;6578573;21;20020;-76
2024/04/19 09:35:49;;;;;;;2.05;1.65;;;13.70;1.00;;;;;;6578561;21;20011;-76
2024/04/19 09:38:15;;;;;;;3.80;1.60;;;13.70;99.90;;;;;;6577962;21;19995;-76
2024/04/19 09:40:46;;;;;;;2.13;1.58;;;13.70;99.90;;;;;;6578890;21;19996;-76
2024/04/19 09:43:15;;;;;;;2.28;1.50;;;13.70;99.90;;;;;;6578827;21;20004;-76
2024/04/19 09:45:47;;;;;;;3.03;1.90;;;13.80;99.90;;;;;;6575852;21;20671;-76
2024/04/19 09:48:19;;;;;;;5.32;2.00;;;13.90;99.90;;;;;;6572521;21;20000;-76
2024/04/19 09:50:47;;;;;;;3.08;2.30;;;13.90;99.90;;;;;;6572009;21;20015;-76
2024/04/19 09:53:17;;;;;;;2.72;2.50;;;13.90;99.90;;;;;;6571718;21;19988;-76
2024/04/19 09:56:00;;;;;;;1.92;1.70;;;13.90;99.90;;;;;;6573070;21;20426;-76
2024/04/19 09:58:27;;;;;;;7.25;2.33;;;13.90;99.90;;;;;;6527209;21;20070;-76
2024/04/19 10:00:54;;;;;;;6.93;2.35;;;13.80;99.90;;;;;;6573257;21;20077;-75
2024/04/19 10:03:21;;;;;;;2.63;2.20;;;13.90;99.90;;;;;;6575260;21;20083;-76
2024/04/19 10:05:47;;;;;;;4.18;2.00;;;14.00;99.90;;;;;;6574198;21;20415;-76
2024/04/19 10:08:15;;;;;;;3.67;2.40;;;14.20;99.90;;;;;;6574860;21;20011;-76
2024/04/19 10:10:41;;;;;;;5.50;2.50;;;14.20;99.90;;;;;;6574459;21;20008;-76
2024/04/19 10:13:07;;;;;;;3.15;2.88;;;14.30;99.90;;;;;;6529760;21;20331;-76
2024/04/19 10:15:33;;;;;;;4.78;2.80;;;14.30;99.90;;;;;;6573401;21;19996;-76
2024/04/19 10:18:02;;;;;;;6.38;2.80;;;14.20;99.90;;;;;;6574497;21;20028;-76
2024/04/19 10:20:28;;;;;;;4.85;2.58;;;14.20;99.90;;;;;;6574938;21;20008;-76
2024/04/19 10:22:54;;;;;;;5.72;3.30;;;14.30;99.90;;;;;;6579891;21;20419;-75
2024/04/19 10:25:25;;;;;;;7.95;2.80;;;14.30;99.90;;;;;;6580179;21;20070;-76
2024/04/19 10:27:51;;;;;;;129.95;77.63;;;14.40;99.90;;;;;;6579830;21;19996;-73
2024/04/19 10:30:20;;;;;;;17.67;11.65;;;14.50;1.00;;;;;;6534105;21;20082;-75
2024/04/19 10:32:54;;;;;;;18.45;8.60;;;14.50;99.90;;;;;;6578502;21;20023;-75
2024/04/19 10:35:21;;;;;;;6.13;3.25;;;14.60;1.00;;;;;;6579738;21;19996;-76
2024/04/19 10:37:47;;;;;;;6.88;3.40;;;14.60;99.90;;;;;;6579685;21;20025;-75
2024/04/19 10:40:15;;;;;;;5.22;3.20;;;14.60;99.90;;;;;;6580107;21;20007;-76
2024/04/19 10:42:41;;;;;;;3.83;3.13;;;14.70;99.90;;;;;;6579394;21;19993;-76
2024/04/19 10:45:14;;;;;;;3.67;2.95;;;14.90;99.90;;;;;;6578472;21;20000;-76
2024/04/19 10:47:43;;;;;;;3.85;2.70;;;15.00;99.90;;;;;;6577777;21;19992;-76
2024/04/19 10:50:09;;;;;;;3.70;1.92;;;15.00;99.90;;;;;;6578004;21;20000;-76
2024/04/19 10:52:35;;;;;;;1.70;1.50;;;15.20;99.90;;;;;;6578009;21;20423;-76
2024/04/19 10:55:01;;;;;;;2.40;1.50;;;15.20;99.90;;;;;;6578114;21;19997;-76
2024/04/19 10:57:33;;;;;;;4.60;1.60;;;15.30;99.90;;;;;;6578165;21;19996;-76
2024/04/19 11:00:00;;;;;;;2.70;1.83;;;15.40;99.90;;;;;;6578793;21;20003;-76
2024/04/19 11:02:26;;;;;;;4.72;2.08;;;15.50;99.90;;;;;;6580072;21;20006;-76
2024/04/19 11:04:53;;;;;;;2.60;1.77;;;15.60;99.90;;;;;;6579721;21;20004;-76
2024/04/19 11:07:20;;;;;;;6.43;1.80;;;15.50;99.90;;;;;;6579704;21;20000;-76
2024/04/19 11:09:48;;;;;;;1.92;1.60;;;15.60;99.90;;;;;;6534091;21;20411;-76
2024/04/19 11:12:14;;;;;;;5.22;2.00;;;15.70;99.90;;;;;;6533142;21;20000;-76
2024/04/19 11:14:40;;;;;;;1.90;1.80;;;15.90;99.90;;;;;;6579765;21;19997;-76
2024/04/19 11:17:06;;;;;;;4.70;2.00;;;15.70;99.90;;;;;;6579383;21;19996;-76
2024/04/19 11:19:33;;;;;;;2.17;2.08;;;15.80;99.90;;;;;;6533940;21;20067;-76
2024/04/19 11:21:59;;;;;;;7.70;2.10;;;15.90;99.90;;;;;;6579956;21;19988;-76
2024/04/19 11:24:25;;;;;;;6.05;1.85;;;16.00;99.90;;;;;;6580031;21;20003;-76
2024/04/19 11:26:51;;;;;;;2.90;0.90;;;16.20;99.90;;;;;;6580176;21;19996;-76
2024/04/19 11:29:20;;;;;;;0.70;0.50;;;16.30;99.90;;;;;;6580396;21;20022;-76
2024/04/19 11:31:46;;;;;;;0.63;0.63;;;16.00;99.90;;;;;;6580360;21;19996;-76
2024/04/19 11:34:12;;;;;;;2.05;0.73;;;16.00;99.90;;;;;;6580334;21;20381;-76
2024/04/19 11:36:40;;;;;;;0.93;0.65;;;16.00;99.90;;;;;;6580214;21;19992;-76
2024/04/19 11:39:06;;;;;;;0.60;0.60;;;16.00;99.90;;;;;;6580379;21;20020;-76
2024/04/19 11:41:31;;;;;;;0.50;0.50;;;16.00;99.90;;;;;;6579985;21;20069;-76
2024/04/19 11:43:58;;;;;;;0.50;0.50;;;16.00;99.90;;;;;;6579830;21;19992;-76
2024/04/19 11:46:27;;;;;;;3.40;0.80;;;16.10;99.90;;;;;;6579800;21;19996;-76
2024/04/19 11:48:53;;;;;;;3.80;1.60;;;16.40;99.90;;;;;;6579582;21;19992;-76
2024/04/19 11:51:19;;;;;;;1.77;1.38;;;16.40;99.90;;;;;;6580141;21;20011;-76
2024/04/19 11:53:45;;;;;;;1.90;1.65;;;16.50;99.90;;;;;;6579299;21;20000;-76
2024/04/19 11:56:11;;;;;;;1.50;1.40;;;16.50;99.90;;;;;;6579898;21;20003;-76
2024/04/19 11:58:37;;;;;;;3.58;1.75;;;16.60;99.90;;;;;;6579240;21;19992;-76
2024/04/19 12:01:04;;;;;;;1.50;1.40;;;16.60;99.90;;;;;;6579264;21;20428;-76
2024/04/19 12:03:31;;;;;;;2.00;1.30;;;16.70;99.90;;;;;;6579333;21;19992;-76
2024/04/19 12:05:57;;;;;;;2.03;1.65;;;16.80;99.90;;;;;;6579890;21;20002;-76
2024/04/19 12:08:23;;;;;;;2.33;1.42;;;17.00;99.90;;;;;;6579099;21;19988;-76
2024/04/19 12:10:49;;;;;;;2.17;1.77;;;17.00;99.90;;;;;;6533655;21;19988;-76
2024/04/19 12:13:14;;;;;;;2.00;1.90;;;17.10;99.90;;;;;;6533164;21;20003;-76
2024/04/19 12:15:40;;;;;;;2.83;2.13;;;17.10;99.90;;;;;;6579315;21;19988;-75
2024/04/19 12:18:06;;;;;;;2.97;2.00;;;17.30;99.90;;;;;;6578735;21;19993;-76
2024/04/19 12:20:31;;;;;;;2.58;1.92;;;17.10;99.90;;;;;;6579563;21;19992;-76
2024/04/19 12:22:57;;;;;;;3.10;1.80;;;17.20;99.90;;;;;;6578546;21;20270;-76
2024/04/19 12:25:23;;;;;;;4.47;1.90;;;17.30;99.90;;;;;;6579058;21;20066;-76
2024/04/19 12:27:48;;;;;;;1.60;1.50;;;17.50;99.90;;;;;;6532876;21;20069;-76
2024/04/19 12:30:14;;;;;;;2.70;2.00;;;17.60;99.90;;;;;;6578848;21;20007;-75
2024/04/19 12:32:41;;;;;;;3.80;2.20;;;17.70;99.90;;;;;;6578739;21;20386;-75
2024/04/19 12:35:09;;;;;;;2.95;1.98;;;17.70;99.90;;;;;;6578756;21;19993;-76
2024/04/19 12:37:35;;;;;;;4.32;2.50;;;17.70;99.90;;;;;;6578416;21;20315;-75
2024/04/19 12:40:01;;;;;;;4.00;2.53;;;17.80;99.90;;;;;;6533003;21;20335;-76
2024/04/19 12:42:27;;;;;;;3.67;2.63;;;18.10;99.90;;;;;;6578670;21;20573;-76
2024/04/19 12:44:53;;;;;;;4.80;2.22;;;18.30;99.90;;;;;;6578688;21;19985;-75
2024/04/19 12:47:20;;;;;;;2.30;1.98;;;18.00;99.90;;;;;;6578461;21;19992;-75
2024/04/19 12:49:46;;;;;;;4.80;2.17;;;18.10;99.90;;;;;;6532998;21;20288;-75
2024/04/19 12:52:12;;;;;;;3.15;2.60;;;18.20;99.90;;;;;;6578501;21;19999;-75
2024/04/19 12:54:37;;;;;;;3.10;1.98;;;18.20;99.90;;;;;;6578714;21;19996;-75
2024/04/19 12:57:04;;;;;;;2.05;1.95;;;18.30;99.90;;;;;;6578072;21;19988;-76